createdAt,value
2022-11-19T00:00:52.784Z,50.877117
2022-11-19T00:01:52.835Z,50.877140
2022-11-19T00:02:52.931Z,50.877171
2022-11-19T00:03:53.415Z,50.877167
2022-11-19T00:04:53.746Z,50.877174
2022-11-19T00:05:52.751Z,50.877106
2022-11-19T00:06:52.733Z,50.877140
2022-11-19T00:07:52.702Z,50.877121
2022-11-19T00:08:52.713Z,50.877159
2022-11-19T00:09:52.731Z,50.877167
2022-11-19T00:10:52.712Z,50.877178
2022-11-19T00:11:52.669Z,50.877197
2022-11-19T00:12:52.667Z,50.877186
2022-11-19T00:13:52.641Z,50.877186
2022-11-19T00:14:52.625Z,50.877190
2022-11-19T00:15:52.665Z,50.877209
2022-11-19T00:16:52.624Z,50.877213
2022-11-19T00:17:52.610Z,50.877201
2022-11-19T00:18:52.592Z,50.877182
2022-11-19T00:19:53.598Z,50.877197
2022-11-19T00:20:52.583Z,50.877213
2022-11-19T00:21:52.568Z,50.877190
2022-11-19T00:22:52.565Z,50.877193
2022-11-19T00:23:52.569Z,50.877186
2022-11-19T00:24:52.528Z,50.877201
2022-11-19T00:25:52.518Z,50.877186
2022-11-19T00:26:52.580Z,50.877224
2022-11-19T00:27:52.580Z,50.877205
2022-11-19T00:28:52.557Z,50.877182
2022-11-19T00:29:52.501Z,50.877213
2022-11-19T00:30:52.493Z,50.877224
2022-11-19T00:31:52.485Z,50.877232
2022-11-19T00:32:52.442Z,50.877209
2022-11-19T00:33:52.458Z,50.877220
2022-11-19T00:34:52.460Z,50.877224
2022-11-19T00:35:52.424Z,50.877193
2022-11-19T00:36:52.451Z,50.877205
2022-11-19T00:37:52.402Z,50.877174
2022-11-19T00:38:52.393Z,50.877193
2022-11-19T00:39:52.408Z,50.877209
2022-11-19T00:40:52.384Z,50.877216
2022-11-19T00:41:52.367Z,50.877213
2022-11-19T00:42:52.367Z,50.877209
2022-11-19T00:43:52.373Z,50.877235
2022-11-19T00:44:52.416Z,50.877243
2022-11-19T00:45:52.332Z,50.877247
2022-11-19T00:46:52.313Z,50.877239
2022-11-19T00:47:52.346Z,50.877228
2022-11-19T00:48:52.330Z,50.877232
2022-11-19T00:49:52.291Z,50.877243
2022-11-19T00:50:52.323Z,50.877232
2022-11-19T00:51:52.282Z,50.877232
2022-11-19T00:52:52.269Z,50.877205
2022-11-19T00:53:52.262Z,50.877182
2022-11-19T00:54:52.230Z,50.877186
2022-11-19T00:55:52.239Z,50.877216
2022-11-19T00:56:52.228Z,50.877235
2022-11-19T00:57:52.210Z,50.877243
2022-11-19T00:58:52.220Z,50.877254
2022-11-19T00:59:52.213Z,50.877235
2022-11-19T01:00:52.232Z,50.877247
2022-11-19T01:01:52.209Z,50.877243
2022-11-19T01:02:52.195Z,50.877235
2022-11-19T01:03:52.172Z,50.877216
2022-11-19T01:04:52.165Z,50.877201
2022-11-19T01:05:52.153Z,50.877216
2022-11-19T01:06:52.163Z,50.877281
2022-11-19T01:07:52.109Z,50.877266
2022-11-19T01:08:52.116Z,50.877274
2022-11-19T01:09:52.118Z,50.877243
2022-11-19T01:10:52.095Z,50.877247
2022-11-19T01:11:52.075Z,50.877216
2022-11-19T01:12:52.059Z,50.877213
2022-11-19T01:13:52.070Z,50.877209
2022-11-19T01:14:52.099Z,50.877190
2022-11-19T01:15:52.049Z,50.877239
2022-11-19T01:16:52.048Z,50.877201
2022-11-19T01:17:52.016Z,50.877224
2022-11-19T01:18:52.010Z,50.877251
2022-11-19T01:19:52.026Z,50.877239
2022-11-19T01:20:51.991Z,50.877251
2022-11-19T01:21:51.994Z,50.877281
2022-11-19T01:22:51.970Z,50.877239
2022-11-19T01:23:51.949Z,50.877281
2022-11-19T01:24:51.984Z,50.877277
2022-11-19T01:25:51.958Z,50.877254
2022-11-19T01:26:51.916Z,50.877232
2022-11-19T01:27:51.940Z,50.877251
2022-11-19T01:28:51.905Z,50.877300
2022-11-19T01:29:51.892Z,50.877274
2022-11-19T01:30:51.909Z,50.877274
2022-11-19T01:31:51.910Z,50.877251
2022-11-19T01:32:51.880Z,50.877281
2022-11-19T01:33:51.912Z,50.877289
2022-11-19T01:34:51.857Z,50.877190
2022-11-19T01:35:51.847Z,50.877197
2022-11-19T01:36:51.861Z,50.877167
2022-11-19T01:37:51.863Z,50.877201
2022-11-19T01:38:51.881Z,50.877171
2022-11-19T01:39:51.845Z,50.877171
2022-11-19T01:40:51.783Z,50.877193
2022-11-19T01:41:51.821Z,50.877201
2022-11-19T01:42:51.809Z,50.877201
2022-11-19T01:43:51.793Z,50.877197
2022-11-19T01:44:51.765Z,50.877205
2022-11-19T01:45:51.723Z,50.877220
2022-11-19T01:46:51.763Z,50.877213
2022-11-19T01:47:51.734Z,50.877213
2022-11-19T01:48:51.747Z,50.877201
2022-11-19T01:49:51.719Z,50.877205
2022-11-19T01:50:51.726Z,50.877201
2022-11-19T01:51:51.689Z,50.877193
2022-11-19T01:52:51.668Z,50.877193
2022-11-19T01:53:51.659Z,50.877186
2022-11-19T01:54:51.652Z,50.877201
2022-11-19T01:55:51.670Z,50.877209
2022-11-19T01:56:51.707Z,50.877205
2022-11-19T01:57:51.619Z,50.877197
2022-11-19T01:58:51.606Z,50.877232
2022-11-19T01:59:51.622Z,50.877144
2022-11-19T02:00:51.639Z,50.877224
2022-11-19T02:01:51.616Z,50.877216
2022-11-19T02:02:51.585Z,50.877213
2022-11-19T02:03:51.577Z,50.877232
2022-11-19T02:04:51.563Z,50.877224
2022-11-19T02:05:51.586Z,50.877220
2022-11-19T02:06:51.531Z,50.877163
2022-11-19T02:07:51.549Z,50.877136
2022-11-19T02:08:51.641Z,50.877132
2022-11-19T02:09:51.524Z,50.877220
2022-11-19T02:10:51.538Z,50.877220
2022-11-19T02:11:51.520Z,50.877197
2022-11-19T02:12:51.534Z,50.877140
2022-11-19T02:13:51.526Z,50.877144
2022-11-19T02:14:54.845Z,50.877182
2022-11-19T02:15:51.465Z,50.877197
2022-11-19T02:16:51.482Z,50.877174
2022-11-19T02:17:51.438Z,50.877155
2022-11-19T02:18:51.436Z,50.877190
2022-11-19T02:19:51.448Z,50.877174
2022-11-19T02:20:51.437Z,50.877167
2022-11-19T02:21:51.452Z,50.877174
2022-11-19T02:22:51.447Z,50.877159
2022-11-19T02:23:51.382Z,50.877140
2022-11-19T02:24:51.381Z,50.877159
2022-11-19T02:25:51.380Z,50.877171
2022-11-19T02:26:51.359Z,50.877182
2022-11-19T02:27:51.346Z,50.877197
2022-11-19T02:28:51.331Z,50.877197
2022-11-19T02:29:51.333Z,50.877205
2022-11-19T02:30:51.329Z,50.877232
2022-11-19T02:31:51.330Z,50.877205
2022-11-19T02:32:51.302Z,50.877167
2022-11-19T02:33:51.334Z,50.877178
2022-11-19T02:34:51.276Z,50.877163
2022-11-19T02:35:51.269Z,50.877174
2022-11-19T02:36:51.273Z,50.877148
2022-11-19T02:37:51.264Z,50.877182
2022-11-19T02:38:51.254Z,50.877163
2022-11-19T02:39:51.226Z,50.877155
2022-11-19T02:40:51.249Z,50.877174
2022-11-19T02:41:51.206Z,50.877190
2022-11-19T02:42:51.196Z,50.877197
2022-11-19T02:43:51.195Z,50.877209
2022-11-19T02:44:51.198Z,50.877193
2022-11-19T02:45:51.169Z,50.877197
2022-11-19T02:46:51.157Z,50.877216
2022-11-19T02:47:51.179Z,50.877171
2022-11-19T02:48:51.122Z,50.877155
2022-11-19T02:49:51.134Z,50.877155
2022-11-19T02:50:51.113Z,50.877159
2022-11-19T02:51:51.103Z,50.877140
2022-11-19T02:52:52.101Z,50.877071
2022-11-19T02:53:52.085Z,50.877132
2022-11-19T02:54:51.085Z,50.877140
2022-11-19T02:55:51.117Z,50.877197
2022-11-19T02:56:51.072Z,50.877228
2022-11-19T02:57:51.052Z,50.877254
2022-11-19T02:58:51.043Z,50.877254
2022-11-19T02:59:51.040Z,50.877254
2022-11-19T03:01:22.984Z,50.877209
2022-11-19T03:01:51.045Z,50.877163
2022-11-19T03:02:50.954Z,50.877190
2022-11-19T03:03:50.964Z,50.877167
2022-11-19T03:04:50.947Z,50.877178
2022-11-19T03:05:50.945Z,50.877190
2022-11-19T03:06:50.950Z,50.877144
2022-11-19T03:07:50.947Z,50.877159
2022-11-19T03:08:50.907Z,50.877140
2022-11-19T03:09:50.906Z,50.877190
2022-11-19T03:10:50.907Z,50.877197
2022-11-19T03:11:50.935Z,50.877151
2022-11-19T03:12:50.883Z,50.877159
2022-11-19T03:13:50.860Z,50.877148
2022-11-19T03:14:50.855Z,50.877178
2022-11-19T03:15:50.843Z,50.877178
2022-11-19T03:16:50.847Z,50.877151
2022-11-19T03:17:50.819Z,50.877186
2022-11-19T03:18:50.815Z,50.877182
2022-11-19T03:19:50.811Z,50.877213
2022-11-19T03:20:50.820Z,50.877159
2022-11-19T03:21:50.799Z,50.877178
2022-11-19T03:22:50.786Z,50.877151
2022-11-19T03:23:50.767Z,50.877174
2022-11-19T03:24:50.753Z,50.877167
2022-11-19T03:25:50.742Z,50.877151
2022-11-19T03:26:50.756Z,50.877136
2022-11-19T03:27:50.736Z,50.877113
2022-11-19T03:28:50.712Z,50.877159
2022-11-19T03:29:50.731Z,50.877151
2022-11-19T03:30:50.702Z,50.877174
2022-11-19T03:31:50.712Z,50.877190
2022-11-19T03:32:50.679Z,50.877213
2022-11-19T03:33:50.675Z,50.877174
2022-11-19T03:34:50.654Z,50.877174
2022-11-19T03:35:50.645Z,50.877174
2022-11-19T03:36:50.652Z,50.877186
2022-11-19T03:37:50.648Z,50.877186
2022-11-19T03:38:50.626Z,50.877186
2022-11-19T03:39:50.615Z,50.877148
2022-11-19T03:40:50.592Z,50.877163
2022-11-19T03:41:50.596Z,50.877182
2022-11-19T03:42:50.603Z,50.877178
2022-11-19T03:43:50.594Z,50.877174
2022-11-19T03:44:50.565Z,50.877193
2022-11-19T03:45:50.546Z,50.877186
2022-11-19T03:46:50.544Z,50.877232
2022-11-19T03:47:50.538Z,50.877209
2022-11-19T03:48:50.557Z,50.877197
2022-11-19T03:49:50.520Z,50.877216
2022-11-19T03:50:50.513Z,50.877205
2022-11-19T03:51:50.489Z,50.877228
2022-11-19T03:52:50.491Z,50.877190
2022-11-19T03:53:50.470Z,50.877201
2022-11-19T03:54:50.485Z,50.877235
2022-11-19T03:55:50.461Z,50.877239
2022-11-19T03:56:50.446Z,50.877186
2022-11-19T03:57:50.447Z,50.877270
2022-11-19T03:58:50.448Z,50.877277
2022-11-19T03:59:50.418Z,50.877274
2022-11-19T04:00:50.405Z,50.877216
2022-11-19T04:01:50.587Z,50.877171
2022-11-19T04:02:50.397Z,50.877224
2022-11-19T04:03:50.405Z,50.877232
2022-11-19T04:04:50.369Z,50.877258
2022-11-19T04:05:50.368Z,50.877144
2022-11-19T04:06:50.368Z,50.877106
2022-11-19T04:07:50.346Z,50.877220
2022-11-19T04:08:50.332Z,50.877197
2022-11-19T04:09:50.320Z,50.877117
2022-11-19T04:10:50.330Z,50.877171
2022-11-19T04:14:36.672Z,50.877151
2022-11-19T04:15:36.676Z,50.877201
2022-11-19T04:16:36.663Z,50.877281
2022-11-19T04:17:36.679Z,50.877174
2022-11-19T04:18:36.645Z,50.877167
2022-11-19T04:19:36.627Z,50.876945
2022-11-19T04:20:36.635Z,50.876945
2022-11-19T04:21:36.631Z,50.877090
2022-11-19T04:22:36.620Z,50.877029
2022-11-19T04:23:36.622Z,50.877171
2022-11-19T04:24:36.601Z,50.877079
2022-11-19T04:25:36.634Z,50.877079
2022-11-19T04:26:36.592Z,50.876965
2022-11-19T04:27:36.563Z,50.877163
2022-11-19T04:28:36.553Z,50.877201
2022-11-19T04:29:36.539Z,50.877201
2022-11-19T04:30:36.545Z,50.877228
2022-11-19T04:31:36.531Z,50.877228
2022-11-19T04:32:36.514Z,50.877098
2022-11-19T04:33:36.510Z,50.877239
2022-11-19T04:34:36.504Z,50.877239
2022-11-19T04:35:36.499Z,50.877239
2022-11-19T04:36:36.479Z,50.877239
2022-11-19T04:37:36.460Z,50.877239
2022-11-19T04:38:36.466Z,50.877239
2022-11-19T04:39:36.465Z,50.877239
2022-11-19T04:40:36.439Z,50.877239
2022-11-19T04:41:36.437Z,50.877239
2022-11-19T04:42:36.412Z,50.877239
2022-11-19T04:43:36.411Z,50.877239
2022-11-19T04:44:36.416Z,50.877239
2022-11-19T04:45:36.390Z,50.877239
2022-11-19T04:46:36.375Z,50.877239
2022-11-19T04:47:36.360Z,50.877239
2022-11-19T04:48:36.351Z,50.877239
2022-11-19T04:49:36.378Z,50.877239
2022-11-19T04:50:36.333Z,50.877239
2022-11-19T04:51:36.337Z,50.876812
2022-11-19T04:52:40.569Z,50.877098
2022-11-19T04:53:37.304Z,50.877098
2022-11-19T04:54:36.301Z,50.877087
2022-11-19T04:55:36.304Z,50.876984
2022-11-19T04:56:36.302Z,50.877155
2022-11-19T04:57:36.272Z,50.877048
2022-11-19T04:58:36.264Z,50.877151
2022-11-19T04:59:36.252Z,50.877216
2022-11-19T05:00:36.241Z,50.877167
2022-11-19T05:01:36.307Z,50.877151
2022-11-19T05:02:36.225Z,50.877182
2022-11-19T05:03:36.214Z,50.877140
2022-11-19T05:04:36.203Z,50.877148
2022-11-19T05:05:36.192Z,50.877110
2022-11-19T05:06:36.189Z,50.877216
2022-11-19T05:07:36.214Z,50.877193
2022-11-19T05:08:36.187Z,50.877167
2022-11-19T05:09:36.146Z,50.877182
2022-11-19T05:10:36.159Z,50.877159
2022-11-19T05:11:36.139Z,50.877151
2022-11-19T05:12:36.137Z,50.877151
2022-11-19T05:13:36.123Z,50.877083
2022-11-19T05:14:36.103Z,50.877140
2022-11-19T05:15:36.130Z,50.877148
2022-11-19T05:16:36.086Z,50.877163
2022-11-19T05:17:36.070Z,50.877182
2022-11-19T05:18:36.067Z,50.877163
2022-11-19T05:19:36.068Z,50.877213
2022-11-19T05:20:36.062Z,50.877232
2022-11-19T05:21:36.095Z,50.877205
2022-11-19T05:22:36.082Z,50.877197
2022-11-19T05:23:36.025Z,50.877182
2022-11-19T05:24:36.032Z,50.877190
2022-11-19T05:25:36.017Z,50.877163
2022-11-19T05:26:36.021Z,50.877224
2022-11-19T05:27:35.984Z,50.877220
2022-11-19T05:28:40.138Z,50.877178
2022-11-19T05:29:36.974Z,50.877182
2022-11-19T05:30:35.963Z,50.877159
2022-11-19T05:31:36.955Z,50.877174
2022-11-19T05:32:35.946Z,50.877220
2022-11-19T05:33:35.934Z,50.877140
2022-11-19T05:34:35.919Z,50.877159
2022-11-19T05:35:35.919Z,50.877098
2022-11-19T05:36:35.905Z,50.877121
2022-11-19T05:37:35.906Z,50.877083
2022-11-19T05:38:35.886Z,50.877151
2022-11-19T05:39:35.893Z,50.877071
2022-11-19T05:40:35.860Z,50.877106
2022-11-19T05:41:35.875Z,50.877159
2022-11-19T05:42:35.842Z,50.877235
2022-11-19T05:43:35.832Z,50.877140
2022-11-19T05:44:35.821Z,50.877178
2022-11-19T05:45:35.813Z,50.877182
2022-11-19T05:46:35.821Z,50.877205
2022-11-19T05:47:35.818Z,50.877182
2022-11-19T05:48:35.780Z,50.877148
2022-11-19T05:49:35.773Z,50.877159
2022-11-19T05:50:35.766Z,50.877178
2022-11-19T05:51:35.751Z,50.877224
2022-11-19T05:52:35.767Z,50.877167
2022-11-19T05:53:35.740Z,50.877190
2022-11-19T05:54:35.732Z,50.877178
2022-11-19T05:55:35.749Z,50.877182
2022-11-19T05:56:35.706Z,50.877224
2022-11-19T05:57:35.705Z,50.877232
2022-11-19T05:58:35.691Z,50.877174
2022-11-19T05:59:38.494Z,50.877083
2022-11-19T06:00:36.697Z,50.877174
2022-11-19T06:01:35.657Z,50.877129
2022-11-19T06:02:35.663Z,50.877197
2022-11-19T06:03:35.637Z,50.877205
2022-11-19T06:04:35.649Z,50.877216
2022-11-19T06:05:40.028Z,50.877209
2022-11-19T06:06:37.611Z,50.877224
2022-11-19T06:07:35.662Z,50.877213
2022-11-19T06:08:36.591Z,50.877182
2022-11-19T06:09:35.570Z,50.877197
2022-11-19T06:10:35.568Z,50.877197
2022-11-19T06:11:35.568Z,50.877228
2022-11-19T06:12:35.582Z,50.877224
2022-11-19T06:13:35.541Z,50.877201
2022-11-19T06:14:35.557Z,50.877155
2022-11-19T06:15:35.551Z,50.877193
2022-11-19T06:16:35.503Z,50.877167
2022-11-19T06:17:35.499Z,50.877197
2022-11-19T06:18:35.490Z,50.877205
2022-11-19T06:19:35.485Z,50.877193
2022-11-19T06:20:35.503Z,50.877155
2022-11-19T06:21:35.465Z,50.877220
2022-11-19T06:22:35.450Z,50.877197
2022-11-19T06:23:35.444Z,50.877247
2022-11-19T06:24:35.459Z,50.877171
2022-11-19T06:25:35.427Z,50.877232
2022-11-19T06:26:35.408Z,50.877197
2022-11-19T06:27:35.404Z,50.877228
2022-11-19T06:28:35.394Z,50.877197
2022-11-19T06:29:35.437Z,50.877190
2022-11-19T06:30:35.392Z,50.877186
2022-11-19T06:31:35.367Z,50.877209
2022-11-19T06:32:35.354Z,50.877205
2022-11-19T06:33:35.345Z,50.877228
2022-11-19T06:34:35.324Z,50.877201
2022-11-19T06:35:35.340Z,50.877228
2022-11-19T06:36:41.014Z,50.877201
2022-11-19T06:37:37.308Z,50.877174
2022-11-19T06:38:35.300Z,50.877201
2022-11-19T06:39:35.279Z,50.877197
2022-11-19T06:40:35.292Z,50.877209
2022-11-19T06:41:35.353Z,50.877148
2022-11-19T06:42:35.271Z,50.877201
2022-11-19T06:43:35.261Z,50.877209
2022-11-19T06:44:35.246Z,50.877174
2022-11-19T06:45:35.262Z,50.877151
2022-11-19T06:46:35.229Z,50.877190
2022-11-19T06:47:35.223Z,50.877213
2022-11-19T06:48:35.195Z,50.877186
2022-11-19T06:49:35.200Z,50.877190
2022-11-19T06:50:35.222Z,50.877186
2022-11-19T06:51:35.192Z,50.877213
2022-11-19T06:52:35.172Z,50.877186
2022-11-19T06:53:35.159Z,50.877205
2022-11-19T06:54:38.862Z,50.877224
2022-11-19T06:55:37.155Z,50.877224
2022-11-19T06:56:35.123Z,50.877190
2022-11-19T06:57:35.124Z,50.877155
2022-11-19T06:58:35.111Z,50.877209
2022-11-19T06:59:35.109Z,50.877174
2022-11-19T07:00:35.112Z,50.877178
2022-11-19T07:01:35.107Z,50.877228
2022-11-19T07:02:35.146Z,50.877209
2022-11-19T07:03:35.057Z,50.877224
2022-11-19T07:04:35.058Z,50.877193
2022-11-19T07:05:35.041Z,50.877186
2022-11-19T07:06:35.035Z,50.877167
2022-11-19T07:07:35.087Z,50.877209
2022-11-19T07:08:35.006Z,50.877167
2022-11-19T07:09:35.000Z,50.877155
2022-11-19T07:10:34.995Z,50.877201
2022-11-19T07:11:34.983Z,50.877151
2022-11-19T07:12:34.976Z,50.877148
2022-11-19T07:13:34.976Z,50.877163
2022-11-19T07:14:34.980Z,50.877174
2022-11-19T07:15:34.953Z,50.877171
2022-11-19T07:16:34.939Z,50.877232
2022-11-19T07:17:34.929Z,50.877251
2022-11-19T07:18:34.921Z,50.877205
2022-11-19T07:19:34.925Z,50.877186
2022-11-19T07:20:34.893Z,50.877224
2022-11-19T07:21:34.902Z,50.877197
2022-11-19T07:22:34.881Z,50.877197
2022-11-19T07:23:34.869Z,50.877220
2022-11-19T07:24:34.856Z,50.877239
2022-11-19T07:25:34.864Z,50.877228
2022-11-19T07:26:34.837Z,50.877243
2022-11-19T07:27:34.825Z,50.877174
2022-11-19T07:28:34.822Z,50.877190
2022-11-19T07:29:34.814Z,50.877281
2022-11-19T07:30:34.859Z,50.877266
2022-11-19T07:31:34.800Z,50.877190
2022-11-19T07:32:34.775Z,50.877144
2022-11-19T07:33:34.755Z,50.877213
2022-11-19T07:34:34.763Z,50.877220
2022-11-19T07:35:34.755Z,50.877209
2022-11-19T07:36:34.761Z,50.877247
2022-11-19T07:37:34.735Z,50.877178
2022-11-19T07:38:37.163Z,50.877155
2022-11-19T07:39:35.720Z,50.877197
2022-11-19T07:40:34.705Z,50.877205
2022-11-19T07:41:34.707Z,50.877144
2022-11-19T07:42:34.712Z,50.877254
2022-11-19T07:43:34.676Z,50.877178
2022-11-19T07:44:34.692Z,50.877159
2022-11-19T07:45:34.665Z,50.877079
2022-11-19T07:46:34.668Z,50.877083
2022-11-19T07:47:34.642Z,50.877083
2022-11-19T07:48:34.628Z,50.877083
2022-11-19T07:49:34.635Z,50.877083
2022-11-19T07:50:34.607Z,50.877083
2022-11-19T07:51:34.610Z,50.877083
2022-11-19T07:52:34.582Z,50.877121
2022-11-19T07:53:34.595Z,50.877148
2022-11-19T07:54:34.581Z,50.877171
2022-11-19T07:55:34.563Z,50.877308
2022-11-19T07:56:34.537Z,50.877220
2022-11-19T07:57:35.549Z,50.877151
2022-11-19T07:58:34.528Z,50.877094
2022-11-19T07:59:34.565Z,50.877224
2022-11-19T08:00:34.558Z,50.877178
2022-11-19T08:01:34.576Z,50.877117
2022-11-19T08:02:34.554Z,50.877167
2022-11-19T08:03:34.480Z,50.877129
2022-11-19T08:04:34.486Z,50.877193
2022-11-19T08:05:34.469Z,50.877205
2022-11-19T08:06:34.471Z,50.877201
2022-11-19T08:07:34.513Z,50.877186
2022-11-19T08:08:34.447Z,50.877190
2022-11-19T08:09:34.449Z,50.877190
2022-11-19T08:10:34.430Z,50.877190
2022-11-19T08:11:34.403Z,50.877201
2022-11-19T08:12:34.405Z,50.877201
2022-11-19T08:13:34.407Z,50.877190
2022-11-19T08:14:34.380Z,50.877182
2022-11-19T08:15:34.364Z,50.877193
2022-11-19T08:16:34.405Z,50.877182
2022-11-19T08:17:34.464Z,50.877190
2022-11-19T08:18:34.347Z,50.877186
2022-11-19T08:19:34.326Z,50.877205
2022-11-19T08:20:34.319Z,50.877201
2022-11-19T08:21:34.436Z,50.877205
2022-11-19T08:22:34.322Z,50.877213
2022-11-19T08:23:34.303Z,50.877216
2022-11-19T08:24:34.282Z,50.877216
2022-11-19T08:25:34.276Z,50.877213
2022-11-19T08:26:34.272Z,50.877213
2022-11-19T08:27:34.278Z,50.877209
2022-11-19T08:28:34.244Z,50.877209
2022-11-19T08:29:34.231Z,50.877201
2022-11-19T08:30:34.227Z,50.877201
2022-11-19T08:31:34.220Z,50.877213
2022-11-19T08:32:34.255Z,50.877228
2022-11-19T08:33:34.189Z,50.877228
2022-11-19T08:34:34.185Z,50.877213
2022-11-19T08:35:34.181Z,50.877224
2022-11-19T08:36:34.157Z,50.877174
2022-11-19T08:37:34.195Z,50.877193
2022-11-19T08:38:38.443Z,50.877190
2022-11-19T08:39:35.138Z,50.877197
2022-11-19T08:40:34.122Z,50.877201
2022-11-19T08:41:34.115Z,50.877220
2022-11-19T08:42:34.134Z,50.877216
2022-11-19T08:43:34.115Z,50.877216
2022-11-19T08:44:34.085Z,50.877209
2022-11-19T08:45:34.080Z,50.877178
2022-11-19T08:46:34.077Z,50.877224
2022-11-19T08:47:34.065Z,50.877213
2022-11-19T08:48:34.063Z,50.877220
2022-11-19T08:49:34.056Z,50.877193
2022-11-19T08:50:34.050Z,50.877220
2022-11-19T08:51:34.022Z,50.877197
2022-11-19T08:52:34.022Z,50.877213
2022-11-19T08:53:33.995Z,50.877213
2022-11-19T08:54:34.002Z,50.877232
2022-11-19T08:55:33.982Z,50.877254
2022-11-19T08:56:33.964Z,50.877266
2022-11-19T08:57:33.981Z,50.877251
2022-11-19T08:58:33.943Z,50.877277
2022-11-19T08:59:33.952Z,50.877262
2022-11-19T09:00:46.173Z,50.877308
2022-11-19T09:01:33.923Z,50.877247
2022-11-19T09:02:33.917Z,50.877232
2022-11-19T09:03:33.913Z,50.877228
2022-11-19T09:04:33.920Z,50.877266
2022-11-19T09:05:33.884Z,50.877274
2022-11-19T09:06:33.883Z,50.877254
2022-11-19T09:07:33.898Z,50.877235
2022-11-19T09:08:33.874Z,50.877228
2022-11-19T09:09:33.845Z,50.877216
2022-11-19T09:10:33.828Z,50.877205
2022-11-19T09:11:37.269Z,50.877239
2022-11-19T09:12:34.838Z,50.877247
2022-11-19T09:13:33.818Z,50.877243
2022-11-19T09:14:33.799Z,50.877220
2022-11-19T09:15:33.787Z,50.877205
2022-11-19T09:16:33.835Z,50.877209
2022-11-19T09:17:33.782Z,50.877201
2022-11-19T09:18:33.836Z,50.877224
2022-11-19T09:19:33.821Z,50.877213
2022-11-19T09:20:33.743Z,50.877232
2022-11-19T09:21:33.730Z,50.877201
2022-11-19T09:22:33.720Z,50.877197
2022-11-19T09:23:33.752Z,50.877182
2022-11-19T09:24:33.725Z,50.877209
2022-11-19T09:25:33.744Z,50.877220
2022-11-19T09:26:33.682Z,50.877205
2022-11-19T09:27:33.672Z,50.877209
2022-11-19T09:28:33.681Z,50.877205
2022-11-19T09:29:33.676Z,50.877220
2022-11-19T09:30:33.643Z,50.877205
2022-11-19T09:31:33.635Z,50.877190
2022-11-19T09:32:33.618Z,50.877209
2022-11-19T09:33:33.610Z,50.877205
2022-11-19T09:34:33.653Z,50.877159
2022-11-19T09:35:33.593Z,50.877171
2022-11-19T09:36:33.584Z,50.877167
2022-11-19T09:37:33.580Z,50.877243
2022-11-19T09:38:33.575Z,50.877205
2022-11-19T09:39:33.555Z,50.877178
2022-11-19T09:40:33.587Z,50.877220
2022-11-19T09:41:33.547Z,50.877087
2022-11-19T09:42:33.538Z,50.877075
2022-11-19T09:43:33.518Z,50.877110
2022-11-19T09:44:33.586Z,50.877178
2022-11-19T09:45:33.523Z,50.877071
2022-11-19T09:46:33.547Z,50.877182
2022-11-19T09:47:33.501Z,50.877254
2022-11-19T09:48:33.478Z,50.877102
2022-11-19T09:49:33.458Z,50.877117
2022-11-19T09:50:33.448Z,50.877129
2022-11-19T09:51:33.497Z,50.877098
2022-11-19T09:52:33.457Z,50.877083
2022-11-19T09:53:33.425Z,50.877136
2022-11-19T09:54:33.943Z,50.877121
2022-11-19T09:55:33.410Z,50.877110
2022-11-19T09:56:33.393Z,50.877151
2022-11-19T09:57:33.407Z,50.877171
2022-11-19T09:58:33.382Z,50.877178
2022-11-19T09:59:33.362Z,50.877182
2022-11-19T10:00:33.351Z,50.877319
2022-11-19T10:01:33.351Z,50.877163
2022-11-19T10:02:33.402Z,50.877377
2022-11-19T10:03:34.064Z,50.877388
2022-11-19T10:04:34.313Z,50.877388
2022-11-19T10:05:33.300Z,50.877388
2022-11-19T10:06:33.308Z,50.877388
2022-11-19T10:07:33.312Z,50.877388
2022-11-19T10:08:33.302Z,50.877388
2022-11-19T10:09:33.272Z,50.877388
2022-11-19T10:10:33.263Z,50.877388
2022-11-19T10:11:33.256Z,50.877388
2022-11-19T10:12:33.246Z,50.877388
2022-11-19T10:13:33.245Z,50.877388
2022-11-19T10:14:33.243Z,50.877388
2022-11-19T10:15:37.380Z,50.877388
2022-11-19T10:16:34.219Z,50.877388
2022-11-19T10:17:33.195Z,50.877388
2022-11-19T10:18:33.177Z,50.877388
2022-11-19T10:19:33.235Z,50.877388
2022-11-19T10:20:33.165Z,50.877388
2022-11-19T10:21:33.167Z,50.877388
2022-11-19T10:22:33.152Z,50.877388
2022-11-19T10:23:33.151Z,50.877388
2022-11-19T10:24:33.126Z,50.877388
2022-11-19T10:25:33.147Z,50.877388
2022-11-19T10:26:33.117Z,50.877388
2022-11-19T10:27:33.093Z,50.877388
2022-11-19T10:28:33.081Z,50.877388
2022-11-19T10:29:33.074Z,50.877388
2022-11-19T10:30:33.090Z,50.877388
2022-11-19T10:31:33.048Z,50.877388
2022-11-19T10:32:33.054Z,50.877388
2022-11-19T10:33:33.067Z,50.877388
2022-11-19T10:34:33.032Z,50.877388
2022-11-19T10:35:33.031Z,50.877388
2022-11-19T10:36:33.012Z,50.877388
2022-11-19T10:37:33.018Z,50.877388
2022-11-19T10:38:32.986Z,50.877388
2022-11-19T10:39:32.984Z,50.877388
2022-11-19T10:40:32.977Z,50.877388
2022-11-19T10:41:32.987Z,50.877388
2022-11-19T10:42:32.950Z,50.877388
2022-11-19T10:43:32.953Z,50.877388
2022-11-19T10:44:32.947Z,50.877388
2022-11-19T10:45:32.935Z,50.877388
2022-11-19T10:46:32.907Z,50.877388
2022-11-19T10:47:32.892Z,50.877388
2022-11-19T10:48:32.943Z,50.877388
2022-11-19T10:49:32.872Z,50.876961
2022-11-19T10:50:32.863Z,50.876785
2022-11-19T10:51:32.857Z,50.876659
2022-11-19T10:52:32.849Z,50.876751
2022-11-19T10:53:32.863Z,50.876984
2022-11-19T10:54:32.834Z,50.876991
2022-11-19T10:55:32.857Z,50.876991
2022-11-19T10:56:32.827Z,50.876991
2022-11-19T10:57:32.807Z,50.876991
2022-11-19T10:58:32.828Z,50.876991
2022-11-19T10:59:32.776Z,50.876991
2022-11-19T11:00:32.781Z,50.876991
2022-11-19T11:01:32.853Z,50.876991
2022-11-19T11:02:32.818Z,50.876991
2022-11-19T11:03:32.744Z,50.876991
2022-11-19T11:04:32.732Z,50.876991
2022-11-19T11:05:32.744Z,50.876991
2022-11-19T11:06:32.741Z,50.876991
2022-11-19T11:07:32.765Z,50.876991
2022-11-19T11:08:32.688Z,50.876991
2022-11-19T11:09:32.705Z,50.876991
2022-11-19T11:10:32.673Z,50.877197
2022-11-19T11:11:32.671Z,50.877239
2022-11-19T11:12:32.655Z,50.877186
2022-11-19T11:13:32.653Z,50.877068
2022-11-19T11:14:32.632Z,50.877068
2022-11-19T11:15:32.619Z,50.877136
2022-11-19T11:16:37.558Z,50.877121
2022-11-19T11:17:34.631Z,50.877052
2022-11-19T11:18:32.610Z,50.877106
2022-11-19T11:19:32.640Z,50.877117
2022-11-19T11:20:32.571Z,50.877151
2022-11-19T11:21:32.571Z,50.877087
2022-11-19T11:22:32.576Z,50.877129
2022-11-19T11:23:32.633Z,50.877171
2022-11-19T11:24:32.559Z,50.877186
2022-11-19T11:25:32.526Z,50.877216
2022-11-19T11:26:32.529Z,50.877197
2022-11-19T11:27:32.508Z,50.877213